Time;durP1;ratioP1;P1;durP2;ratioP2;P2;SDS_P1;SDS_P2;PMS_P1;PMS_P2;Temp;Humidity;BMP_temperature;BMP_pressure;BME280_temperature;BME280_humidity;BME280_pressure;Samples;Min_cycle;Max_cycle;Signal;HPM_P1;HPM_P2
2021/07/15 07:47:29;;;;;;;1.55;1.30;;;18.80;91.40;;;;;;4855475;29;20136;-82
2021/07/15 07:50:02;;;;;;;2.25;1.60;;;18.60;91.30;;;;;;4822979;29;20049;-85
2021/07/15 07:53:18;;;;;;;2.63;1.70;;;18.70;91.40;;;;;;4838495;29;20080;-83
2021/07/15 08:04:53;;;;;;;3.05;1.70;;;18.70;91.50;;;;;;4769466;29;20063;-83
2021/07/15 08:08:06;;;;;;;2.50;1.55;;;18.70;91.50;;;;;;4765186;30;20121;-86
2021/07/15 08:14:44;;;;;;;2.88;1.50;;;18.80;91.50;;;;;;4750474;30;20092;-79
2021/07/15 08:17:14;;;;;;;1.70;1.50;;;18.40;91.30;;;;;;4747508;30;20048;-80
2021/07/15 08:22:48;;;;;;;1.67;1.10;;;18.90;91.30;;;;;;4796866;29;20055;-81
2021/07/15 08:33:13;;;;;;;1.95;1.25;;;18.80;91.40;;;;;;4649606;30;20057;-80
2021/07/15 08:35:42;;;;;;;1.50;1.10;;;18.30;91.30;;;;;;4681941;30;20050;-82
2021/07/15 08:38:09;;;;;;;1.75;1.45;;;18.60;91.30;;;;;;4682482;30;20513;-79
2021/07/15 08:40:37;;;;;;;2.75;1.50;;;18.90;91.40;;;;;;4694682;30;20052;-82
2021/07/15 08:43:06;;;;;;;4.60;2.30;;;18.90;91.40;;;;;;4700079;30;20049;-81
2021/07/15 08:45:35;;;;;;;4.70;1.80;;;18.90;91.40;;;;;;4650543;30;20054;-80
2021/07/15 08:48:04;;;;;;;3.38;1.83;;;18.60;91.30;;;;;;4651977;30;20046;-81
2021/07/15 08:50:31;;;;;;;3.20;1.77;;;18.90;91.40;;;;;;4652946;30;20081;-79
2021/07/15 08:52:58;;;;;;;2.25;1.52;;;18.90;91.40;;;;;;4665061;30;20051;-79
2021/07/15 08:58:01;;;;;;;2.40;1.38;;;18.90;91.50;;;;;;4686545;30;20127;-79
2021/07/15 09:00:38;;;;;;;3.85;1.90;;;18.90;91.50;;;;;;4710860;30;20053;-79
2021/07/15 09:03:05;;;;;;;4.68;1.42;;;18.90;91.50;;;;;;4793118;29;20086;-79
2021/07/15 09:05:30;;;;;;;1.92;1.45;;;18.90;91.60;;;;;;4860397;29;20045;-78
2021/07/15 09:07:56;;;;;;;3.83;1.80;;;18.60;91.50;;;;;;4860451;29;20463;-79
2021/07/15 09:10:23;;;;;;;3.13;1.80;;;18.90;91.60;;;;;;4878955;29;20087;-80
2021/07/15 09:12:49;;;;;;;3.63;1.90;;;18.90;91.60;;;;;;4884667;29;20543;-79
2021/07/15 09:15:18;;;;;;;3.80;1.70;;;18.80;91.60;;;;;;4953357;28;20051;-79
2021/07/15 09:17:47;;;;;;;3.47;1.70;;;18.80;91.60;;;;;;4923322;28;20114;-80
2021/07/15 09:28:02;;;;;;;3.08;1.80;;;18.70;91.60;;;;;;4946656;28;20046;-80
2021/07/15 09:31:44;;;;;;;1.73;1.42;;;19.20;91.70;;;;;;4914257;29;20052;-83
2021/07/15 09:34:48;;;;;;;2.17;1.40;;;18.80;91.60;;;;;;4857525;29;20072;-82
2021/07/15 09:38:54;;;;;;;3.08;1.67;;;18.80;91.60;;;;;;4842333;29;20057;-83
2021/07/15 09:50:00;;;;;;;3.05;1.60;;;19.20;91.70;;;;;;4715014;30;20558;-84
2021/07/15 09:52:26;;;;;;;3.35;1.67;;;18.70;91.60;;;;;;4629311;31;20110;-80
2021/07/15 09:54:52;;;;;;;3.33;1.60;;;18.70;91.60;;;;;;4631107;31;20043;-79
2021/07/15 09:57:27;;;;;;;1.67;1.30;;;18.70;91.60;;;;;;4631177;31;20052;-79
2021/07/15 09:59:56;;;;;;;2.70;1.33;;;18.20;91.40;;;;;;4667849;30;20515;-80
2021/07/15 10:02:34;;;;;;;3.22;1.60;;;18.70;91.50;;;;;;4667508;30;20050;-83
2021/07/15 10:06:06;;;;;;;1.80;1.30;;;19.10;91.60;;;;;;4650280;30;20061;-85
2021/07/15 10:20:18;;;;;;;2.78;1.60;;;18.70;91.40;;;;;;4666446;30;20608;-82
2021/07/15 10:38:43;;;;;;;2.53;1.52;;;18.90;91.40;;;;;;4765577;30;20161;-83
2021/07/15 10:41:34;;;;;;;2.22;1.27;;;18.80;91.30;;;;;;4709815;30;20068;-84
2021/07/15 10:44:03;;;;;;;2.03;1.25;;;18.80;91.30;;;;;;4700317;30;20053;-85
2021/07/15 10:50:17;;;;;;;1.70;1.38;;;18.80;91.40;;;;;;4644387;30;20051;-82
2021/07/15 10:52:47;;;;;;;2.15;1.70;;;18.30;91.30;;;;;;4632101;30;20137;-81
2021/07/15 10:59:36;;;;;;;2.08;1.10;;;18.80;91.40;;;;;;4557927;31;20921;-80
2021/07/15 11:02:34;;;;;;;1.40;1.05;;;18.90;91.40;;;;;;4551058;31;20399;-82
2021/07/15 11:05:45;;;;;;;1.48;0.93;;;18.90;91.40;;;;;;4564923;31;20147;-81
2021/07/15 11:08:31;;;;;;;1.65;1.30;;;18.40;91.20;;;;;;4584166;31;20521;-79
2021/07/15 11:11:15;;;;;;;2.50;1.30;;;18.90;91.30;;;;;;4562363;31;20041;-81
2021/07/15 11:14:02;;;;;;;1.90;1.30;;;19.00;91.20;;;;;;4548027;30;20480;-80
2021/07/15 11:21:15;;;;;;;1.63;1.20;;;18.90;91.20;;;;;;4660163;30;20402;-82
2021/07/15 11:23:30;;;;;;;1.15;1.05;;;19.30;91.30;;;;;;4680080;30;20145;-79
2021/07/15 11:26:26;;;;;;;2.03;1.42;;;19.30;91.30;;;;;;4649280;30;20572;-81
2021/07/15 11:28:55;;;;;;;1.55;1.40;;;19.00;91.20;;;;;;4736849;29;20055;-78
2021/07/15 11:31:54;;;;;;;1.23;1.13;;;18.90;91.30;;;;;;4859734;29;20123;-78
2021/07/15 11:34:46;;;;;;;1.75;1.33;;;18.60;91.20;;;;;;4837921;29;20490;-79
2021/07/15 11:37:39;;;;;;;3.05;1.40;;;19.30;91.30;;;;;;4900770;29;20078;-81
2021/07/15 11:40:42;;;;;;;3.38;1.90;;;19.20;91.30;;;;;;4915954;29;20039;-80
2021/07/15 11:43:31;;;;;;;2.38;1.70;;;18.60;91.00;;;;;;4901681;29;20082;-80
2021/07/15 11:46:04;;;;;;;1.77;1.30;;;19.00;91.10;;;;;;4882344;29;20053;-81
2021/07/15 11:48:51;;;;;;;2.30;1.55;;;18.90;91.20;;;;;;4914896;29;20032;-80
2021/07/15 11:51:28;;;;;;;1.55;1.20;;;19.00;91.20;;;;;;4898843;29;20047;-81
2021/07/15 11:54:43;;;;;;;1.15;1.05;;;19.00;91.20;;;;;;4897869;29;20115;-80
2021/07/15 11:57:25;;;;;;;1.83;1.50;;;19.30;91.30;;;;;;4914312;29;20048;-80
2021/07/15 12:00:05;;;;;;;3.10;1.60;;;18.90;91.30;;;;;;4898656;29;20035;-78
2021/07/15 12:02:37;;;;;;;2.17;1.60;;;19.00;91.30;;;;;;4915268;29;20109;-80
2021/07/15 12:05:12;;;;;;;2.33;1.60;;;19.00;91.30;;;;;;4883240;29;20047;-80
2021/07/15 12:07:45;;;;;;;3.08;1.80;;;18.80;91.20;;;;;;4883061;29;20040;-80
2021/07/15 12:10:27;;;;;;;2.63;1.55;;;18.90;91.30;;;;;;4883193;29;20483;-83
2021/07/15 12:24:21;;;;;;;1.65;1.38;;;19.00;91.20;;;;;;4746153;30;20457;-80
2021/07/15 12:26:52;;;;;;;3.10;1.77;;;19.40;91.20;;;;;;4744299;30;20079;-79
2021/07/15 12:29:18;;;;;;;2.47;1.70;;;19.10;91.20;;;;;;4729079;30;20059;-79
2021/07/15 12:31:44;;;;;;;1.67;1.50;;;19.10;91.20;;;;;;4731342;30;20033;-79
2021/07/15 12:34:12;;;;;;;2.65;1.80;;;19.10;91.10;;;;;;4730777;30;20041;-79
2021/07/15 12:36:40;;;;;;;2.20;1.40;;;19.10;91.10;;;;;;4745146;30;20037;-79
2021/07/15 12:39:09;;;;;;;2.20;1.35;;;19.10;91.10;;;;;;4731243;30;20045;-79
2021/07/15 12:41:39;;;;;;;3.05;1.77;;;19.10;91.10;;;;;;4730409;30;20047;-80
2021/07/15 12:44:09;;;;;;;2.30;1.53;;;19.20;91.20;;;;;;4745032;30;20197;-80
2021/07/15 12:46:38;;;;;;;2.83;1.85;;;19.10;91.20;;;;;;4728902;30;20298;-79
2021/07/15 12:49:10;;;;;;;3.28;1.77;;;19.10;91.20;;;;;;4760623;29;20031;-80
2021/07/15 12:51:59;;;;;;;5.50;2.83;;;19.10;91.20;;;;;;4802168;29;20031;-81
2021/07/15 12:54:30;;;;;;;3.35;2.08;;;19.10;91.20;;;;;;4801692;29;20050;-79
2021/07/15 12:56:59;;;;;;;2.97;1.73;;;19.10;91.20;;;;;;4807970;29;20173;-79
2021/07/15 13:02:35;;;;;;;3.10;2.10;;;19.20;91.10;;;;;;4883264;29;20096;-82
2021/07/15 13:05:16;;;;;;;2.10;1.60;;;18.60;91.00;;;;;;4892614;29;20049;-82
2021/07/15 13:14:13;;;;;;;2.40;1.42;;;19.00;91.00;;;;;;4855546;29;20053;-83
2021/07/15 13:16:54;;;;;;;2.70;1.60;;;19.30;91.00;;;;;;4854564;29;20056;-81
2021/07/15 13:19:23;;;;;;;4.25;1.92;;;18.80;90.80;;;;;;4862166;29;20065;-80
2021/07/15 13:21:51;;;;;;;2.35;1.67;;;19.00;90.90;;;;;;4847616;29;20046;-81
2021/07/15 13:24:43;;;;;;;2.53;1.88;;;18.70;90.80;;;;;;4832658;29;20037;-85
2021/07/15 13:27:35;;;;;;;2.30;1.60;;;19.30;91.00;;;;;;4845023;29;20038;-82
2021/07/15 13:33:31;;;;;;;1.70;1.38;;;19.30;90.90;;;;;;4802044;29;19935;-82
2021/07/15 13:36:05;;;;;;;2.22;1.50;;;18.80;90.80;;;;;;4745259;30;20124;-82
2021/07/15 13:38:43;;;;;;;2.05;1.60;;;20.70;91.30;;;;;;4796921;29;20043;-83
2021/07/15 13:41:49;;;;;;;2.25;1.48;;;18.50;90.80;;;;;;4788977;29;20062;-83
2021/07/15 13:45:18;;;;;;;2.10;1.60;;;19.40;91.00;;;;;;4730907;30;20389;-83
2021/07/15 13:48:08;;;;;;;2.40;1.48;;;19.20;91.00;;;;;;4716583;30;20051;-80
2021/07/15 13:50:50;;;;;;;1.80;1.30;;;19.40;91.00;;;;;;4671004;30;20070;-82
2021/07/15 13:53:22;;;;;;;2.25;1.90;;;18.90;90.90;;;;;;4691743;30;20078;-82
2021/07/15 13:56:17;;;;;;;2.35;1.90;;;19.20;91.00;;;;;;4725650;30;20136;-82
2021/07/15 13:58:50;;;;;;;2.55;1.70;;;19.40;91.10;;;;;;4705767;30;20054;-82
2021/07/15 14:01:32;;;;;;;2.80;1.73;;;19.30;91.10;;;;;;4720774;30;20033;-82
2021/07/15 14:04:03;;;;;;;2.10;1.58;;;18.60;90.90;;;;;;4753061;30;20036;-80
2021/07/15 14:06:35;;;;;;;1.80;1.40;;;19.20;91.00;;;;;;4764690;30;20057;-82
2021/07/15 14:10:07;;;;;;;3.08;1.70;;;19.40;91.00;;;;;;4745020;30;20305;-81
2021/07/15 14:13:11;;;;;;;3.10;1.60;;;19.30;91.00;;;;;;4731208;30;20195;-81
2021/07/15 14:15:39;;;;;;;3.13;2.00;;;19.20;90.90;;;;;;4736952;30;20044;-80
2021/07/15 14:18:09;;;;;;;3.33;1.77;;;19.20;90.90;;;;;;4755177;30;20111;-79
2021/07/15 14:20:45;;;;;;;2.50;1.80;;;19.20;90.90;;;;;;4757602;30;20407;-77
2021/07/15 14:23:15;;;;;;;2.42;1.70;;;19.20;90.90;;;;;;4768978;30;20058;-79
2021/07/15 14:25:43;;;;;;;3.22;1.90;;;19.20;91.00;;;;;;4769822;30;20043;-79
2021/07/15 14:28:09;;;;;;;3.10;2.00;;;18.80;90.90;;;;;;4769870;30;20047;-78
2021/07/15 14:30:36;;;;;;;2.78;2.10;;;19.20;90.90;;;;;;4740972;30;20144;-78
2021/07/15 14:33:04;;;;;;;2.38;1.80;;;19.20;91.00;;;;;;4750006;30;20036;-78
2021/07/15 14:35:32;;;;;;;2.97;1.67;;;19.10;91.00;;;;;;4750637;30;20037;-79
2021/07/15 14:38:00;;;;;;;3.30;1.85;;;19.10;91.00;;;;;;4750514;30;20047;-78
2021/07/15 14:40:26;;;;;;;2.47;1.70;;;19.10;91.00;;;;;;4750182;30;20128;-78
2021/07/15 14:42:52;;;;;;;2.78;1.92;;;19.10;91.00;;;;;;4772837;29;20047;-78
2021/07/15 14:45:18;;;;;;;4.25;2.60;;;19.10;91.00;;;;;;4803759;29;20043;-77
2021/07/15 14:47:45;;;;;;;2.63;1.70;;;19.10;91.00;;;;;;4818870;29;20039;-78
2021/07/15 14:50:14;;;;;;;2.40;1.75;;;19.00;91.00;;;;;;4799275;29;20047;-79
2021/07/15 14:52:40;;;;;;;4.13;2.22;;;18.90;91.00;;;;;;4868900;29;20127;-77
2021/07/15 14:55:08;;;;;;;3.25;1.98;;;19.00;91.00;;;;;;4899664;29;20054;-77
2021/07/15 14:57:35;;;;;;;4.40;2.10;;;19.00;91.10;;;;;;4899393;29;20447;-78
2021/07/15 15:00:00;;;;;;;2.70;1.85;;;19.00;91.10;;;;;;4915279;29;20552;-79
2021/07/15 15:02:27;;;;;;;3.20;2.00;;;18.90;91.10;;;;;;4915182;29;20052;-79
2021/07/15 15:04:53;;;;;;;2.60;1.80;;;18.90;91.10;;;;;;4916325;29;20040;-78
2021/07/15 15:07:19;;;;;;;3.45;2.10;;;18.90;91.10;;;;;;4916790;29;20043;-79
2021/07/15 15:09:45;;;;;;;2.53;1.90;;;18.90;91.10;;;;;;4916844;29;20100;-79
2021/07/15 15:12:11;;;;;;;2.72;1.70;;;18.90;91.10;;;;;;4917435;29;20036;-78
2021/07/15 15:14:38;;;;;;;3.30;1.80;;;18.90;91.10;;;;;;4915119;29;20645;-77
2021/07/15 15:17:05;;;;;;;3.17;1.90;;;18.90;91.10;;;;;;4916663;29;20120;-77
2021/07/15 15:19:31;;;;;;;2.97;1.80;;;18.90;91.10;;;;;;4916493;29;20040;-78
2021/07/15 15:21:57;;;;;;;3.22;1.60;;;19.00;91.10;;;;;;4914885;29;20047;-78
2021/07/15 15:24:25;;;;;;;1.83;1.50;;;18.90;91.10;;;;;;4916229;29;20036;-78
2021/07/15 15:26:51;;;;;;;1.75;1.50;;;18.90;91.10;;;;;;4899168;29;20032;-77
2021/07/15 15:29:17;;;;;;;3.00;1.60;;;18.90;91.10;;;;;;4916173;29;20032;-78
2021/07/15 15:31:43;;;;;;;2.15;1.60;;;18.90;91.10;;;;;;4914522;29;20044;-78
2021/07/15 15:34:09;;;;;;;1.77;1.52;;;18.90;91.10;;;;;;4899214;29;20148;-78
2021/07/15 15:36:36;;;;;;;1.30;1.20;;;18.90;91.10;;;;;;4914802;29;20039;-78
2021/07/15 15:39:05;;;;;;;1.92;1.30;;;18.90;91.10;;;;;;4914675;29;20032;-78
2021/07/15 15:41:35;;;;;;;2.03;1.50;;;18.90;91.10;;;;;;4914075;29;20052;-79
2021/07/15 15:44:01;;;;;;;1.77;1.23;;;18.80;91.10;;;;;;4913328;29;20402;-79
2021/07/15 15:46:26;;;;;;;1.25;1.10;;;18.90;91.10;;;;;;4916350;29;20032;-79
2021/07/15 15:48:55;;;;;;;1.27;1.10;;;18.90;91.20;;;;;;4915652;29;20502;-79
2021/07/15 15:51:22;;;;;;;1.52;1.30;;;18.40;91.00;;;;;;4898636;29;20099;-78
2021/07/15 15:53:49;;;;;;;2.30;1.40;;;18.80;91.10;;;;;;4898883;29;20099;-78
2021/07/15 15:56:16;;;;;;;1.73;1.20;;;18.70;91.10;;;;;;4898741;29;20479;-80
2021/07/15 15:58:43;;;;;;;1.30;1.10;;;18.80;91.10;;;;;;4876104;29;20066;-78
2021/07/15 16:01:09;;;;;;;1.48;1.10;;;18.90;91.10;;;;;;4861192;29;20109;-81
2021/07/15 16:03:43;;;;;;;1.85;1.40;;;18.70;91.10;;;;;;4829877;29;20158;-83
2021/07/15 16:07:38;;;;;;;1.35;1.10;;;19.10;91.20;;;;;;4786219;29;20043;-81
2021/07/15 16:17:22;;;;;;;1.20;1.08;;;18.70;91.10;;;;;;4659633;30;20134;-81
2021/07/15 16:20:20;;;;;;;1.58;1.30;;;18.50;91.00;;;;;;4652219;30;20050;-82
2021/07/15 16:22:48;;;;;;;2.03;1.20;;;18.40;91.00;;;;;;4656456;30;20149;-85
2021/07/15 16:25:17;;;;;;;2.00;1.15;;;18.60;91.10;;;;;;4662575;30;20134;-85
2021/07/15 16:27:46;;;;;;;1.60;1.25;;;18.40;91.10;;;;;;4662713;30;20133;-83
2021/07/15 16:30:14;;;;;;;1.30;1.20;;;18.50;91.20;;;;;;4674101;30;20069;-82
2021/07/15 16:32:41;;;;;;;1.58;1.20;;;18.50;91.20;;;;;;4665064;30;20046;-83
2021/07/15 16:35:22;;;;;;;1.88;1.42;;;18.50;91.30;;;;;;4652320;30;20050;-82
2021/07/15 16:37:48;;;;;;;1.60;1.30;;;18.40;91.30;;;;;;4653230;30;20080;-82
2021/07/15 16:40:17;;;;;;;1.58;1.20;;;18.40;91.30;;;;;;4741884;30;20044;-82
2021/07/15 16:42:47;;;;;;;1.33;1.23;;;18.20;91.20;;;;;;4775305;30;20044;-81
2021/07/15 16:45:17;;;;;;;1.83;1.50;;;18.80;91.40;;;;;;4786412;29;20063;-82
2021/07/15 16:47:43;;;;;;;2.72;1.30;;;18.30;91.30;;;;;;4796734;29;20501;-82
2021/07/15 16:50:11;;;;;;;2.67;1.65;;;18.30;91.30;;;;;;4806349;29;20050;-82
2021/07/15 16:52:37;;;;;;;2.22;1.30;;;18.30;91.30;;;;;;4800279;29;20515;-82
2021/07/15 16:55:06;;;;;;;1.80;1.45;;;18.40;91.30;;;;;;4878793;29;20125;-82
2021/07/15 16:57:32;;;;;;;2.05;1.60;;;18.40;91.30;;;;;;4878977;29;20123;-82
2021/07/15 16:59:58;;;;;;;2.00;1.42;;;17.90;91.20;;;;;;4863362;29;20049;-82
2021/07/15 17:02:25;;;;;;;1.48;1.33;;;18.50;91.40;;;;;;4878810;29;20085;-84
2021/07/15 17:04:51;;;;;;;2.35;1.60;;;18.30;91.30;;;;;;4863573;29;20044;-82
2021/07/15 17:07:16;;;;;;;1.70;1.35;;;18.30;91.30;;;;;;4879057;29;20038;-82
2021/07/15 17:09:43;;;;;;;1.80;1.50;;;18.40;91.30;;;;;;4915063;29;20059;-83
2021/07/15 17:12:10;;;;;;;2.60;1.67;;;18.40;91.30;;;;;;4886112;29;20072;-85
2021/07/15 17:14:37;;;;;;;3.60;1.75;;;18.40;91.30;;;;;;4901303;29;20044;-82
2021/07/15 17:17:03;;;;;;;1.98;1.58;;;18.40;91.30;;;;;;4901102;29;20088;-82
2021/07/15 17:19:29;;;;;;;2.65;1.95;;;18.30;91.30;;;;;;4900871;29;20048;-82
2021/07/15 17:21:56;;;;;;;2.92;1.80;;;18.40;91.30;;;;;;4900729;29;20068;-83
2021/07/15 17:24:22;;;;;;;2.47;1.55;;;18.40;91.30;;;;;;4884347;29;20483;-83
2021/07/15 17:26:48;;;;;;;2.72;1.60;;;18.40;91.40;;;;;;4917238;29;20036;-83
2021/07/15 17:29:13;;;;;;;1.95;1.50;;;18.40;91.30;;;;;;4916837;29;20111;-83
2021/07/15 17:31:40;;;;;;;2.88;1.55;;;18.10;91.20;;;;;;4900841;29;20052;-83
2021/07/15 17:34:07;;;;;;;3.28;2.17;;;18.50;91.30;;;;;;4899215;29;20495;-83
2021/07/15 17:36:33;;;;;;;4.18;1.90;;;18.30;91.20;;;;;;4916630;29;20048;-82
2021/07/15 17:39:00;;;;;;;3.08;1.65;;;18.40;91.20;;;;;;4900596;29;20511;-83
2021/07/15 17:41:28;;;;;;;2.63;1.42;;;18.50;91.20;;;;;;4900816;29;20040;-82
2021/07/15 17:43:54;;;;;;;1.90;1.50;;;18.70;91.20;;;;;;4917891;29;20040;-82
2021/07/15 17:46:20;;;;;;;2.85;1.70;;;18.60;91.20;;;;;;4916501;29;20103;-82
2021/07/15 17:48:47;;;;;;;2.20;1.50;;;18.50;91.20;;;;;;4900159;29;20048;-81
2021/07/15 17:51:13;;;;;;;3.78;1.88;;;18.10;91.10;;;;;;4918063;29;20036;-81
2021/07/15 17:53:39;;;;;;;4.18;1.63;;;18.60;91.20;;;;;;4916398;29;20115;-81
2021/07/15 17:56:05;;;;;;;2.78;1.80;;;18.60;91.20;;;;;;4917535;29;20136;-83
2021/07/15 17:58:31;;;;;;;2.85;1.80;;;18.50;91.20;;;;;;4916236;29;20036;-81
2021/07/15 18:00:58;;;;;;;5.22;2.08;;;18.50;91.20;;;;;;4900208;29;20087;-81
2021/07/15 18:03:35;;;;;;;2.83;1.70;;;18.50;91.20;;;;;;4914943;29;20165;-84
2021/07/15 18:07:07;;;;;;;3.85;1.90;;;18.30;91.20;;;;;;4899017;29;20579;-83
2021/07/15 18:17:07;;;;;;;2.17;1.48;;;18.60;91.20;;;;;;4802289;29;21001;-83
2021/07/15 18:19:45;;;;;;;1.73;1.40;;;18.30;91.10;;;;;;4748636;30;20110;-84
2021/07/15 18:52:29;;;;;;;2.22;1.50;;;18.50;91.00;;;;;;4638480;30;20472;-81
2021/07/15 18:55:59;;;;;;;1.52;1.02;;;18.50;91.00;;;;;;4616551;30;20078;-81
2021/07/15 19:22:32;;;;;;;2.50;1.25;;;18.30;91.00;;;;;;4702261;30;20088;-82
2021/07/15 19:26:43;;;;;;;4.80;1.88;;;18.20;91.00;;;;;;4708860;30;20053;-82
2021/07/15 19:29:34;;;;;;;3.03;1.42;;;18.20;91.00;;;;;;4690921;30;20056;-82
2021/07/15 19:32:00;;;;;;;2.80;1.58;;;18.20;91.00;;;;;;4731329;30;20199;-79
2021/07/15 19:34:53;;;;;;;3.35;1.67;;;17.80;91.00;;;;;;4720857;30;20036;-81
2021/07/15 19:41:14;;;;;;;3.75;1.70;;;17.70;91.10;;;;;;4677207;30;20528;-83
2021/07/15 19:47:22;;;;;;;1.92;1.50;;;18.10;91.20;;;;;;4666821;30;20076;-84
2021/07/15 19:56:31;;;;;;;1.80;1.38;;;17.60;91.00;;;;;;4662208;30;20618;-79
2021/07/15 19:58:57;;;;;;;1.70;1.23;;;18.00;91.10;;;;;;4648447;30;20101;-80
2021/07/15 20:01:25;;;;;;;1.75;1.30;;;18.20;91.20;;;;;;4647833;30;20039;-83
2021/07/15 20:03:53;;;;;;;2.47;1.38;;;18.00;91.20;;;;;;4654573;30;20081;-82
2021/07/15 20:06:20;;;;;;;2.08;1.33;;;17.70;91.10;;;;;;4679770;30;20108;-83
2021/07/15 20:08:46;;;;;;;2.55;1.30;;;18.00;91.20;;;;;;4693877;30;20128;-85
2021/07/15 20:11:12;;;;;;;2.15;1.35;;;18.20;91.20;;;;;;4682600;30;20041;-83
2021/07/15 20:39:43;;;;;;;1.73;0.90;;;17.80;91.10;;;;;;4730328;30;20586;-82
2021/07/15 20:49:36;;;;;;;1.00;0.80;;;17.50;91.00;;;;;;4599448;31;20063;-84
2021/07/15 20:52:34;;;;;;;2.42;1.00;;;17.40;91.00;;;;;;4603567;31;20044;-83
2021/07/15 20:55:00;;;;;;;1.17;1.00;;;17.90;91.10;;;;;;4610395;30;20052;-80
2021/07/15 20:57:26;;;;;;;1.13;1.02;;;17.80;91.10;;;;;;4611305;30;20086;-81
2021/07/15 20:59:53;;;;;;;2.47;1.40;;;18.00;91.10;;;;;;4611541;30;20494;-81
2021/07/15 21:02:19;;;;;;;1.60;1.15;;;17.80;91.10;;;;;;4618840;30;20130;-80
2021/07/15 21:04:46;;;;;;;1.50;1.02;;;17.70;91.10;;;;;;4638319;30;20478;-80
2021/07/15 21:07:13;;;;;;;2.25;1.27;;;17.70;91.10;;;;;;4691393;30;20045;-80
2021/07/15 21:09:40;;;;;;;1.58;1.00;;;17.70;91.10;;;;;;4769583;29;20065;-80
2021/07/15 21:12:07;;;;;;;1.75;1.25;;;17.70;91.10;;;;;;4807562;29;20120;-80
2021/07/15 21:14:35;;;;;;;1.95;1.35;;;17.70;91.10;;;;;;4805814;29;20054;-80
2021/07/15 21:17:02;;;;;;;2.85;1.52;;;17.80;91.10;;;;;;4808337;29;20106;-79
2021/07/15 21:19:29;;;;;;;2.38;1.38;;;17.80;91.10;;;;;;4809011;29;20486;-80
2021/07/15 21:21:55;;;;;;;1.73;1.13;;;17.30;91.00;;;;;;4825916;29;20065;-81
2021/07/15 21:24:22;;;;;;;2.47;1.38;;;17.70;91.10;;;;;;4826061;29;20050;-80
2021/07/15 21:26:48;;;;;;;2.33;1.48;;;17.70;91.10;;;;;;4845126;29;20036;-81
2021/07/15 21:29:15;;;;;;;1.95;1.30;;;17.70;91.10;;;;;;4879677;29;20040;-80
2021/07/15 21:31:41;;;;;;;3.10;1.52;;;17.50;91.00;;;;;;4882413;29;20044;-81
2021/07/15 21:34:07;;;;;;;1.70;1.30;;;17.80;91.10;;;;;;4882506;29;20048;-80
2021/07/15 21:36:34;;;;;;;4.20;1.50;;;17.90;91.10;;;;;;4881850;29;20127;-80
2021/07/15 21:39:00;;;;;;;2.75;1.38;;;17.70;91.10;;;;;;4882483;29;20295;-81
2021/07/15 21:41:27;;;;;;;1.92;1.27;;;17.70;91.10;;;;;;4884854;29;20149;-81
2021/07/15 21:43:54;;;;;;;1.67;1.27;;;17.40;91.00;;;;;;4885142;29;20036;-80
2021/07/15 21:46:21;;;;;;;2.22;1.40;;;17.50;91.00;;;;;;4885511;29;20036;-81
2021/07/15 21:48:48;;;;;;;2.20;1.20;;;17.80;91.10;;;;;;4885374;29;20435;-80
2021/07/15 21:51:17;;;;;;;2.50;1.20;;;17.60;91.00;;;;;;4885414;29;20032;-80
2021/07/15 21:53:44;;;;;;;1.35;1.13;;;17.40;91.00;;;;;;4887775;29;20036;-80
2021/07/15 21:56:11;;;;;;;1.10;1.00;;;17.60;91.00;;;;;;4887352;29;20044;-81
2021/07/15 21:58:37;;;;;;;1.67;1.20;;;17.60;91.00;;;;;;4885262;29;20040;-81
2021/07/15 22:01:05;;;;;;;2.30;1.40;;;17.60;91.00;;;;;;4883663;29;20076;-81
2021/07/15 22:03:33;;;;;;;1.92;1.50;;;17.60;91.00;;;;;;4884820;29;20123;-81
2021/07/15 22:06:00;;;;;;;2.97;1.65;;;17.90;91.10;;;;;;4884597;29;20043;-81
2021/07/15 22:08:26;;;;;;;2.25;1.40;;;17.50;91.00;;;;;;4884670;29;20060;-81
2021/07/15 22:10:53;;;;;;;3.00;1.40;;;17.50;91.00;;;;;;4885316;29;20032;-81
2021/07/15 22:13:19;;;;;;;3.42;1.55;;;17.80;91.10;;;;;;4884238;29;20055;-82
2021/07/15 22:15:45;;;;;;;3.20;1.80;;;17.60;91.10;;;;;;4884553;29;20036;-81
2021/07/15 22:18:12;;;;;;;3.17;1.48;;;17.50;91.00;;;;;;4899629;29;20047;-81
2021/07/15 22:20:40;;;;;;;2.35;1.60;;;17.60;91.10;;;;;;4884702;29;20082;-81
2021/07/15 22:23:11;;;;;;;3.08;1.60;;;17.80;91.10;;;;;;4883431;29;20037;-82
2021/07/15 22:25:37;;;;;;;2.20;1.30;;;17.40;91.00;;;;;;4884918;29;20050;-81
2021/07/15 22:28:07;;;;;;;4.13;1.77;;;17.40;91.00;;;;;;4884627;29;20075;-81
2021/07/15 22:30:35;;;;;;;2.42;1.40;;;17.40;91.00;;;;;;4884363;29;20055;-82
2021/07/15 22:33:05;;;;;;;1.38;1.20;;;17.50;91.00;;;;;;4884637;29;20398;-80
2021/07/15 22:35:42;;;;;;;2.65;1.35;;;17.30;91.00;;;;;;4884617;29;20130;-82
2021/07/15 22:38:11;;;;;;;1.95;1.27;;;17.20;91.00;;;;;;4884854;29;20032;-82
2021/07/15 22:40:37;;;;;;;2.20;1.38;;;17.30;91.00;;;;;;4882624;29;20578;-82
2021/07/15 22:43:03;;;;;;;1.48;1.27;;;17.10;90.90;;;;;;4884571;29;20052;-82
2021/07/15 22:45:31;;;;;;;1.00;0.85;;;16.90;90.80;;;;;;4899856;29;20044;-82
2021/07/15 22:47:57;;;;;;;3.08;1.35;;;17.30;90.90;;;;;;4915510;29;20453;-82
2021/07/15 22:50:24;;;;;;;1.60;1.15;;;17.60;91.00;;;;;;4882552;29;20045;-82
2021/07/15 22:52:50;;;;;;;1.88;1.10;;;17.50;91.00;;;;;;4883217;29;20036;-82
2021/07/15 22:55:22;;;;;;;2.63;1.20;;;17.30;91.00;;;;;;4884076;29;20046;-81
2021/07/15 22:57:50;;;;;;;2.40;1.30;;;17.30;91.00;;;;;;4879789;29;20051;-82
2021/07/15 23:00:21;;;;;;;1.58;1.33;;;17.40;91.00;;;;;;4865177;29;20483;-83
2021/07/15 23:02:48;;;;;;;1.88;1.13;;;17.00;90.90;;;;;;4865114;29;20060;-83
2021/07/15 23:05:16;;;;;;;1.80;1.27;;;17.20;90.90;;;;;;4864352;29;20530;-82
2021/07/15 23:07:43;;;;;;;1.85;1.10;;;17.30;90.90;;;;;;4864390;29;20062;-82
2021/07/15 23:10:15;;;;;;;1.25;1.15;;;17.50;90.90;;;;;;4864629;29;20152;-82
2021/07/15 23:12:43;;;;;;;1.90;1.30;;;17.40;90.90;;;;;;4864557;29;20147;-80
2021/07/15 23:15:12;;;;;;;2.08;1.00;;;17.20;90.90;;;;;;4847290;29;20128;-81
2021/07/15 23:17:41;;;;;;;2.15;0.90;;;17.20;90.90;;;;;;4864193;29;20119;-81
2021/07/15 23:20:11;;;;;;;1.55;1.10;;;17.20;90.90;;;;;;4864445;29;20071;-82
2021/07/15 23:22:38;;;;;;;1.40;1.00;;;16.80;90.80;;;;;;4879341;29;20047;-82
2021/07/15 23:25:09;;;;;;;1.25;0.90;;;16.90;90.80;;;;;;4864112;29;20048;-82
2021/07/15 23:27:36;;;;;;;2.13;1.10;;;17.10;90.90;;;;;;4864811;29;20083;-83
2021/07/15 23:30:06;;;;;;;1.65;1.20;;;17.60;91.00;;;;;;4897849;29;20085;-83
2021/07/15 23:32:33;;;;;;;1.40;1.13;;;17.50;91.00;;;;;;4883527;29;20067;-82
2021/07/15 23:35:00;;;;;;;1.50;1.10;;;17.00;90.90;;;;;;4883506;29;20040;-82
2021/07/15 23:37:27;;;;;;;1.83;1.05;;;17.30;90.90;;;;;;4883259;29;20132;-80
2021/07/15 23:39:53;;;;;;;2.40;1.00;;;17.20;90.90;;;;;;4882762;29;20047;-82
2021/07/15 23:42:21;;;;;;;1.52;1.13;;;17.10;90.90;;;;;;4883087;29;20052;-82
2021/07/15 23:44:47;;;;;;;0.82;0.80;;;17.10;90.80;;;;;;4883625;29;20467;-82
2021/07/15 23:47:13;;;;;;;1.63;1.10;;;17.20;90.90;;;;;;4899248;29;20048;-82
2021/07/15 23:49:43;;;;;;;2.17;1.27;;;17.20;90.90;;;;;;4882901;29;20059;-82
2021/07/15 23:52:10;;;;;;;3.88;1.33;;;17.20;90.90;;;;;;4882984;29;20048;-81
2021/07/15 23:54:37;;;;;;;1.40;1.20;;;17.10;90.80;;;;;;4883496;29;20072;-82
2021/07/15 23:57:04;;;;;;;1.38;1.20;;;17.10;90.80;;;;;;4882351;29;20045;-82
2021/07/15 23:59:32;;;;;;;1.88;1.30;;;17.10;90.80;;;;;;4883916;29;20176;-83
